Time;durP1;ratioP1;P1;durP2;ratioP2;P2;SDS_P1;SDS_P2;PMS_P1;PMS_P2;Temp;Humidity;BMP_temperature;BMP_pressure;BME280_temperature;BME280_humidity;BME280_pressure;Samples;Min_cycle;Max_cycle;Signal;HPM_P1;HPM_P2
2021/12/13 00:02:36;;;;;;;47.78;13.52;;;10.10;99.90;;;;;;5026197;28;20036;-71
2021/12/13 00:05:27;;;;;;;46.03;12.73;;;10.10;99.90;;;;;;5043573;28;20484;-71
2021/12/13 00:07:58;;;;;;;45.10;12.98;;;10.10;99.90;;;;;;5040497;28;20059;-71
2021/12/13 00:10:43;;;;;;;44.00;11.98;;;10.10;99.90;;;;;;5043526;28;20047;-71
2021/12/13 00:13:15;;;;;;;41.03;12.82;;;10.10;99.90;;;;;;5028417;28;20516;-71
2021/12/13 00:15:54;;;;;;;34.63;11.23;;;10.10;99.90;;;;;;5042195;28;20052;-71
2021/12/13 00:18:25;;;;;;;34.38;11.88;;;10.10;99.90;;;;;;5020646;28;20041;-71
2021/12/13 00:20:59;;;;;;;34.90;11.35;;;10.10;99.90;;;;;;5047522;28;20222;-71
2021/12/13 00:23:29;;;;;;;47.03;11.48;;;10.10;99.90;;;;;;5031240;28;20037;-71
2021/12/13 00:25:58;;;;;;;44.58;10.52;;;10.10;99.90;;;;;;5040969;28;20056;-71
2021/12/13 00:28:27;;;;;;;41.58;11.50;;;10.10;99.90;;;;;;5038987;28;20041;-71
2021/12/13 00:31:17;;;;;;;45.60;11.27;;;10.10;99.90;;;;;;5032660;28;20048;-71
2021/12/13 00:34:12;;;;;;;39.88;11.88;;;10.00;99.90;;;;;;5017607;28;20609;-71
2021/12/13 00:36:50;;;;;;;32.22;11.32;;;10.10;99.90;;;;;;5043121;28;20131;-71
2021/12/13 00:39:35;;;;;;;34.92;10.45;;;10.10;99.90;;;;;;5039885;28;20390;-71
2021/12/13 00:42:03;;;;;;;35.10;10.77;;;10.10;99.90;;;;;;5008525;28;20037;-71
2021/12/13 00:44:35;;;;;;;32.60;10.43;;;10.10;99.90;;;;;;5024222;28;20064;-71
2021/12/13 00:47:07;;;;;;;33.70;9.98;;;10.10;99.90;;;;;;5038643;28;20041;-71
2021/12/13 00:49:38;;;;;;;35.30;9.55;;;10.10;99.90;;;;;;5037291;28;20267;-71
2021/12/13 00:52:04;;;;;;;29.38;9.70;;;10.10;99.90;;;;;;5040196;28;20032;-71
2021/12/13 00:54:39;;;;;;;32.00;11.05;;;10.10;99.90;;;;;;5044448;28;20037;-71
2021/12/13 00:57:30;;;;;;;24.08;8.55;;;10.10;99.90;;;;;;5037185;28;20264;-71
2021/12/13 01:00:18;;;;;;;23.38;9.13;;;10.20;99.90;;;;;;5023464;28;20052;-71
2021/12/13 01:02:52;;;;;;;17.20;8.15;;;10.10;99.90;;;;;;5031768;28;20236;-71
2021/12/13 01:05:55;;;;;;;22.52;8.85;;;10.10;99.90;;;;;;5026649;28;20397;-71
2021/12/13 01:09:18;;;;;;;25.33;8.93;;;10.20;99.90;;;;;;5044039;28;20734;-71
2021/12/13 01:11:44;;;;;;;19.63;8.20;;;10.20;99.90;;;;;;5020881;28;20045;-71
2021/12/13 01:14:29;;;;;;;17.70;8.23;;;10.20;99.90;;;;;;5024166;28;20512;-71
2021/12/13 01:17:13;;;;;;;24.85;8.27;;;10.20;99.90;;;;;;5037557;28;20130;-71
2021/12/13 01:19:51;;;;;;;25.58;8.57;;;10.20;99.90;;;;;;5028582;28;20033;-71
2021/12/13 01:22:31;;;;;;;24.98;8.63;;;10.20;99.90;;;;;;5043486;28;20107;-69
2021/12/13 01:25:18;;;;;;;22.88;8.48;;;10.20;99.90;;;;;;5021519;28;20059;-69
2021/12/13 01:27:51;;;;;;;25.17;9.00;;;10.20;99.90;;;;;;5038672;28;20075;-69
2021/12/13 01:30:22;;;;;;;20.40;8.50;;;10.20;99.90;;;;;;5043441;28;20552;-69
2021/12/13 01:32:52;;;;;;;21.63;8.90;;;10.10;99.90;;;;;;5025185;28;20163;-69
2021/12/13 01:35:23;;;;;;;26.33;9.07;;;10.20;99.90;;;;;;5030697;28;20489;-69
2021/12/13 01:37:53;;;;;;;30.25;11.05;;;10.10;99.90;;;;;;5029203;28;20050;-69
2021/12/13 01:40:22;;;;;;;27.17;9.57;;;10.10;99.90;;;;;;5048190;28;20032;-69
2021/12/13 01:42:55;;;;;;;36.38;11.05;;;10.10;99.90;;;;;;5024297;28;20048;-69
2021/12/13 01:45:21;;;;;;;31.27;11.50;;;10.10;99.90;;;;;;5005913;28;20052;-69
2021/12/13 01:47:47;;;;;;;40.13;12.00;;;10.10;99.90;;;;;;5047495;28;20301;-69
2021/12/13 01:50:18;;;;;;;29.00;11.33;;;10.10;99.90;;;;;;5020279;28;20043;-69
2021/12/13 01:52:47;;;;;;;25.10;10.45;;;10.10;99.90;;;;;;5044030;28;20086;-69
2021/12/13 01:55:21;;;;;;;40.47;11.93;;;10.10;99.90;;;;;;5028292;28;20090;-69
2021/12/13 01:57:51;;;;;;;39.53;10.93;;;10.10;99.90;;;;;;5035100;28;20068;-69
2021/12/13 02:00:44;;;;;;;33.25;10.77;;;10.10;99.90;;;;;;5028592;28;20068;-69
2021/12/13 02:03:10;;;;;;;32.78;11.63;;;10.00;99.90;;;;;;5043818;28;20046;-69
2021/12/13 02:05:36;;;;;;;37.15;11.60;;;10.10;99.90;;;;;;5031744;28;20223;-69
2021/12/13 02:08:10;;;;;;;32.87;10.87;;;10.10;99.90;;;;;;5028563;28;20120;-69
2021/12/13 02:10:51;;;;;;;37.17;11.40;;;10.00;99.90;;;;;;5038778;28;20048;-69
2021/12/13 02:13:21;;;;;;;36.80;11.90;;;10.00;99.90;;;;;;5024136;28;20090;-69
2021/12/13 02:18:40;;;;;;;31.52;12.27;;;10.00;99.90;;;;;;5041545;28;20492;-69
2021/12/13 02:21:22;;;;;;;29.45;11.38;;;10.00;99.90;;;;;;5031912;28;20409;-69
2021/12/13 02:23:50;;;;;;;30.13;10.27;;;10.00;99.90;;;;;;5024752;28;20131;-69
2021/12/13 02:26:16;;;;;;;28.52;9.93;;;10.00;99.90;;;;;;5035128;28;20192;-69
2021/12/13 02:28:45;;;;;;;27.55;9.35;;;10.00;99.90;;;;;;5042048;28;20065;-71
2021/12/13 02:31:19;;;;;;;29.17;9.52;;;10.00;99.90;;;;;;5029893;28;20053;-69
2021/12/13 02:33:50;;;;;;;28.63;10.48;;;10.00;99.90;;;;;;5036571;28;20033;-69
2021/12/13 02:36:27;;;;;;;26.63;8.00;;;10.00;99.90;;;;;;5082975;22;20400;-66
2021/12/13 02:38:55;;;;;;;24.50;9.73;;;9.90;99.90;;;;;;5069329;28;20040;-66
2021/12/13 02:41:25;;;;;;;33.53;9.93;;;9.90;99.90;;;;;;5051720;28;20090;-66
2021/12/13 02:43:56;;;;;;;25.52;9.35;;;9.90;99.90;;;;;;5069766;28;20045;-66
2021/12/13 02:46:22;;;;;;;24.40;9.30;;;9.90;99.90;;;;;;5069158;28;20052;-66
2021/12/13 02:48:53;;;;;;;24.95;9.35;;;9.90;99.90;;;;;;5044452;28;20067;-66
2021/12/13 02:51:25;;;;;;;28.33;8.73;;;9.90;99.90;;;;;;5068308;28;20045;-66
2021/12/13 02:54:17;;;;;;;27.05;9.27;;;9.90;99.90;;;;;;5068614;28;20123;-66
2021/12/13 02:56:50;;;;;;;28.42;10.00;;;9.90;99.90;;;;;;5034813;28;20051;-65
2021/12/13 02:59:17;;;;;;;27.45;10.48;;;9.90;99.90;;;;;;5069042;28;20044;-66
2021/12/13 03:01:58;;;;;;;30.77;10.55;;;9.90;99.90;;;;;;5069242;28;20039;-66
2021/12/13 03:04:26;;;;;;;28.15;9.23;;;9.90;99.90;;;;;;5068206;28;20048;-66
2021/12/13 03:06:58;;;;;;;25.48;9.70;;;9.90;99.90;;;;;;5069092;28;20119;-66
2021/12/13 03:09:27;;;;;;;29.10;7.82;;;9.90;99.90;;;;;;5069594;28;20052;-66
2021/12/13 03:11:55;;;;;;;21.60;7.20;;;9.90;99.90;;;;;;5068674;28;20036;-66
2021/12/13 03:14:40;;;;;;;24.85;7.60;;;9.90;99.90;;;;;;5069367;28;20041;-66
2021/12/13 03:17:06;;;;;;;29.88;8.50;;;9.90;99.90;;;;;;5067460;28;20428;-66
2021/12/13 03:19:40;;;;;;;22.53;7.10;;;9.90;99.90;;;;;;5066414;28;20043;-66
2021/12/13 03:22:29;;;;;;;19.20;7.35;;;9.90;99.90;;;;;;5059625;28;20051;-66
2021/12/13 03:25:27;;;;;;;19.77;6.53;;;9.80;99.90;;;;;;5052301;28;20040;-66
2021/12/13 03:28:19;;;;;;;25.38;6.45;;;10.00;99.90;;;;;;5072168;28;20079;-66
2021/12/13 03:31:11;;;;;;;24.00;5.88;;;9.80;99.90;;;;;;5072309;28;20051;-66
2021/12/13 03:33:55;;;;;;;16.85;5.65;;;9.80;99.90;;;;;;5072376;28;20040;-66
2021/12/13 03:36:53;;;;;;;15.90;5.53;;;9.80;99.90;;;;;;5071747;28;20044;-66
2021/12/13 03:39:42;;;;;;;22.63;5.75;;;9.80;99.90;;;;;;5028261;28;20378;-66
2021/12/13 03:42:13;;;;;;;17.35;4.65;;;9.80;99.90;;;;;;5054219;28;20076;-66
2021/12/13 03:44:46;;;;;;;14.23;4.82;;;9.80;99.90;;;;;;5072466;28;20041;-66
2021/12/13 03:47:18;;;;;;;12.77;4.30;;;9.80;99.90;;;;;;5072923;28;20477;-66
2021/12/13 03:49:50;;;;;;;11.15;4.07;;;9.70;99.90;;;;;;5071535;28;20054;-66
2021/12/13 03:52:21;;;;;;;16.90;3.55;;;9.80;99.90;;;;;;5058432;28;20047;-66
2021/12/13 03:54:49;;;;;;;13.15;4.28;;;9.80;99.90;;;;;;5037921;28;20048;-66
2021/12/13 03:57:16;;;;;;;14.02;3.83;;;9.70;99.90;;;;;;5071249;28;20106;-66
2021/12/13 03:59:44;;;;;;;8.02;3.42;;;9.70;99.90;;;;;;5072333;28;20043;-66
2021/12/13 04:02:23;;;;;;;11.77;2.97;;;9.70;99.90;;;;;;5071592;28;20044;-66
2021/12/13 04:04:56;;;;;;;9.95;2.95;;;9.80;99.90;;;;;;5072689;28;20048;-66
2021/12/13 04:07:27;;;;;;;9.68;3.40;;;9.80;99.90;;;;;;5072679;28;20405;-66
2021/12/13 04:09:55;;;;;;;6.03;2.58;;;9.70;99.90;;;;;;5070530;28;20040;-66
2021/12/13 04:12:29;;;;;;;9.68;3.10;;;9.70;99.90;;;;;;5054317;28;20044;-66
2021/12/13 04:15:01;;;;;;;13.70;3.00;;;9.70;99.90;;;;;;5071726;28;20124;-66
2021/12/13 04:17:42;;;;;;;8.32;2.40;;;9.70;99.90;;;;;;5071819;28;20048;-67
2021/12/13 04:20:35;;;;;;;8.23;2.03;;;9.70;99.90;;;;;;5064515;28;20047;-66
2021/12/13 04:23:09;;;;;;;7.53;2.58;;;9.70;99.90;;;;;;5063495;28;20049;-66
2021/12/13 04:25:39;;;;;;;9.40;2.40;;;9.80;99.90;;;;;;5072199;28;20046;-65
2021/12/13 04:28:21;;;;;;;4.25;2.28;;;9.80;99.90;;;;;;5052697;28;20032;-66
2021/12/13 04:31:01;;;;;;;8.73;2.20;;;9.80;99.90;;;;;;5071997;28;20078;-66
2021/12/13 04:33:32;;;;;;;7.45;3.00;;;9.80;99.90;;;;;;5070786;28;20044;-67
2021/12/13 04:36:05;;;;;;;8.30;2.35;;;9.80;99.90;;;;;;5050985;28;20072;-66
2021/12/13 04:38:52;;;;;;;5.03;2.00;;;9.70;99.90;;;;;;5059906;28;20032;-66
2021/12/13 04:41:26;;;;;;;9.98;2.20;;;9.80;99.90;;;;;;5071462;28;20047;-66
2021/12/13 04:44:02;;;;;;;5.47;1.90;;;9.70;99.90;;;;;;5071309;28;20044;-66
2021/12/13 04:46:32;;;;;;;5.60;2.38;;;9.70;99.90;;;;;;5071659;28;20043;-66
2021/12/13 04:49:07;;;;;;;7.53;1.95;;;9.70;99.90;;;;;;5052516;28;20040;-66
2021/12/13 04:52:04;;;;;;;6.95;2.08;;;9.70;99.90;;;;;;5059204;28;20404;-66
2021/12/13 04:54:32;;;;;;;4.10;1.63;;;9.70;99.90;;;;;;5071160;28;20127;-66
2021/12/13 04:56:59;;;;;;;5.32;2.15;;;9.70;99.90;;;;;;5071689;28;20117;-66
2021/12/13 04:59:26;;;;;;;3.20;2.00;;;9.70;99.90;;;;;;5071247;28;20041;-66
2021/12/13 05:01:57;;;;;;;7.30;3.20;;;9.70;99.90;;;;;;5052317;28;20043;-66
2021/12/13 05:04:24;;;;;;;7.32;2.80;;;9.70;99.90;;;;;;5070865;28;20044;-67
2021/12/13 05:06:52;;;;;;;4.93;2.50;;;9.70;99.90;;;;;;5052534;28;20419;-66
2021/12/13 05:09:22;;;;;;;6.07;2.90;;;9.60;99.90;;;;;;5070702;28;20513;-66
2021/12/13 05:11:56;;;;;;;9.23;2.50;;;9.70;99.90;;;;;;5071134;28;20044;-66
2021/12/13 05:14:41;;;;;;;6.28;2.50;;;9.60;99.90;;;;;;5062385;28;20052;-66
2021/12/13 05:17:17;;;;;;;7.13;3.13;;;9.70;99.90;;;;;;5066582;28;20228;-66
2021/12/13 05:19:48;;;;;;;5.80;2.83;;;9.60;99.90;;;;;;5071052;28;20029;-66
2021/12/13 05:22:16;;;;;;;5.70;3.05;;;9.60;99.90;;;;;;5070417;28;20509;-66
2021/12/13 05:24:47;;;;;;;8.63;3.08;;;9.60;99.90;;;;;;5052739;28;20037;-67
2021/12/13 05:27:16;;;;;;;8.07;3.60;;;9.60;99.90;;;;;;5070131;28;20051;-66
2021/12/13 05:29:49;;;;;;;9.93;3.33;;;9.60;99.90;;;;;;5071008;28;20066;-66
2021/12/13 05:32:16;;;;;;;7.72;4.00;;;9.50;99.90;;;;;;5070619;28;20037;-66
2021/12/13 05:34:56;;;;;;;8.98;3.72;;;9.60;99.90;;;;;;5052247;28;20083;-66
2021/12/13 05:37:24;;;;;;;6.32;3.65;;;9.60;99.90;;;;;;5054943;28;20044;-66
2021/12/13 05:40:03;;;;;;;8.65;3.92;;;9.50;99.90;;;;;;5068318;28;20094;-66
2021/12/13 05:42:45;;;;;;;10.48;3.70;;;9.50;99.90;;;;;;5052255;28;20041;-66
2021/12/13 05:45:15;;;;;;;8.82;4.18;;;9.50;99.90;;;;;;5069674;28;20032;-66
2021/12/13 05:47:56;;;;;;;7.80;4.00;;;9.50;99.90;;;;;;5070096;28;20526;-66
2021/12/13 05:50:33;;;;;;;10.82;4.10;;;9.50;99.90;;;;;;5070196;28;20051;-66
2021/12/13 05:53:07;;;;;;;11.70;4.65;;;9.50;99.90;;;;;;5070519;28;20051;-66
2021/12/13 05:55:45;;;;;;;8.77;4.10;;;9.50;99.90;;;;;;5060318;28;20044;-66
2021/12/13 05:58:11;;;;;;;9.77;4.10;;;9.50;99.90;;;;;;5044911;28;20561;-66
2021/12/13 06:00:40;;;;;;;7.90;4.07;;;9.40;99.90;;;;;;5042633;28;20036;-66
2021/12/13 06:03:16;;;;;;;10.63;4.05;;;9.50;99.90;;;;;;5060266;28;20041;-66
2021/12/13 06:05:48;;;;;;;9.60;4.07;;;9.50;99.90;;;;;;5049780;28;20037;-66
2021/12/13 06:08:25;;;;;;;10.88;4.15;;;9.40;99.90;;;;;;5049988;28;20129;-65
2021/12/13 06:10:59;;;;;;;11.98;4.07;;;9.50;99.90;;;;;;5070231;28;20485;-66
2021/12/13 06:13:43;;;;;;;8.60;4.25;;;9.40;99.90;;;;;;5069009;28;20036;-66
2021/12/13 06:16:09;;;;;;;11.25;4.75;;;9.40;99.90;;;;;;5057137;28;20116;-66
2021/12/13 06:19:02;;;;;;;9.25;4.68;;;9.40;99.90;;;;;;5069662;28;20111;-66
2021/12/13 06:21:40;;;;;;;9.60;4.82;;;9.40;99.90;;;;;;5069021;28;20036;-66
2021/12/13 06:24:07;;;;;;;10.82;5.18;;;9.40;99.90;;;;;;5052235;28;20290;-66
2021/12/13 06:26:34;;;;;;;11.48;4.68;;;9.40;99.90;;;;;;5069533;28;20041;-66
2021/12/13 06:29:03;;;;;;;12.60;5.30;;;9.40;99.90;;;;;;5051443;28;20036;-66
2021/12/13 06:31:42;;;;;;;12.18;5.55;;;9.40;99.90;;;;;;5051576;28;20401;-66
2021/12/13 06:34:12;;;;;;;13.55;5.35;;;9.40;99.90;;;;;;5068782;28;20094;-66
2021/12/13 06:36:45;;;;;;;9.48;5.47;;;9.40;99.90;;;;;;5070454;28;20455;-66
2021/12/13 06:39:19;;;;;;;9.02;5.50;;;9.40;99.90;;;;;;5069113;28;20115;-66
2021/12/13 06:41:50;;;;;;;10.10;5.70;;;9.40;99.90;;;;;;5033671;28;20040;-66
2021/12/13 06:44:20;;;;;;;12.07;5.63;;;9.30;99.90;;;;;;5051153;28;20431;-66
2021/12/13 06:46:56;;;;;;;14.43;5.82;;;9.30;99.90;;;;;;5068649;28;20040;-66
2021/12/13 06:49:41;;;;;;;10.50;5.30;;;9.40;99.90;;;;;;5069220;28;20684;-66
2021/12/13 06:52:13;;;;;;;9.98;5.60;;;9.30;99.90;;;;;;5049706;28;20128;-66
2021/12/13 06:54:46;;;;;;;14.27;6.00;;;9.40;99.90;;;;;;5052363;28;20127;-66
2021/12/13 06:57:11;;;;;;;13.70;5.57;;;9.30;99.90;;;;;;5072635;28;20044;-66
2021/12/13 06:59:59;;;;;;;14.30;5.23;;;9.30;99.90;;;;;;5072271;28;20304;-66
2021/12/13 07:02:35;;;;;;;8.70;4.93;;;9.30;99.90;;;;;;5055029;28;20405;-66
2021/12/13 07:05:22;;;;;;;8.33;5.13;;;9.30;99.90;;;;;;5072845;28;20140;-66
2021/12/13 07:07:55;;;;;;;9.23;5.30;;;9.30;99.90;;;;;;5066933;28;20091;-66
2021/12/13 07:10:37;;;;;;;9.93;6.30;;;9.30;99.90;;;;;;5073436;28;20048;-66
2021/12/13 07:13:10;;;;;;;13.00;5.90;;;9.30;99.90;;;;;;5054483;28;20048;-66
2021/12/13 07:16:13;;;;;;;15.50;5.97;;;9.30;99.90;;;;;;5055155;28;20082;-66
2021/12/13 07:18:52;;;;;;;12.57;5.80;;;9.30;99.90;;;;;;5070040;28;20040;-66
2021/12/13 07:21:25;;;;;;;14.02;6.10;;;9.30;99.90;;;;;;5044346;28;20052;-67
2021/12/13 07:24:12;;;;;;;12.00;6.40;;;9.30;99.90;;;;;;5051114;28;20039;-69
2021/12/13 07:26:53;;;;;;;;;;;9.30;99.90;;;;;;5045265;28;20064;-66
2021/12/13 07:29:39;;;;;;;12.27;5.65;;;9.30;99.90;;;;;;5034409;28;19917;-66
2021/12/13 07:32:10;;;;;;;17.13;6.53;;;9.20;99.90;;;;;;5064460;28;20413;-66
2021/12/13 07:34:50;;;;;;;11.88;6.18;;;9.30;99.90;;;;;;5072231;28;20047;-66
2021/12/13 07:37:17;;;;;;;11.82;6.10;;;9.30;99.90;;;;;;5054776;28;20036;-66
2021/12/13 07:39:43;;;;;;;16.85;7.53;;;9.30;99.90;;;;;;5070916;28;20041;-66
2021/12/13 07:42:12;;;;;;;18.85;7.53;;;9.30;99.90;;;;;;5072471;28;20455;-66
2021/12/13 07:44:46;;;;;;;14.88;8.23;;;9.30;99.90;;;;;;5057673;28;20095;-66
2021/12/13 07:47:17;;;;;;;14.82;8.05;;;9.30;99.90;;;;;;5053706;28;20040;-66
2021/12/13 07:49:57;;;;;;;14.95;7.53;;;9.30;99.90;;;;;;5053952;28;20055;-66
2021/12/13 07:52:30;;;;;;;17.35;8.77;;;9.30;99.90;;;;;;5066557;28;20489;-66
2021/12/13 07:55:11;;;;;;;18.90;8.57;;;9.30;99.90;;;;;;5072485;28;20036;-66
2021/12/13 07:57:36;;;;;;;15.73;8.30;;;9.30;99.90;;;;;;5071743;28;20036;-66
2021/12/13 08:00:11;;;;;;;19.13;9.03;;;9.30;99.90;;;;;;5072038;28;20392;-66
2021/12/13 08:02:37;;;;;;;17.10;8.52;;;9.30;99.90;;;;;;5043104;28;20036;-66
2021/12/13 08:05:13;;;;;;;16.13;9.10;;;9.30;99.90;;;;;;5071677;28;20448;-66
2021/12/13 08:07:48;;;;;;;19.02;8.52;;;9.40;99.90;;;;;;5071597;28;20187;-66
2021/12/13 08:10:22;;;;;;;17.15;9.68;;;9.40;99.90;;;;;;5072131;28;20043;-66
2021/12/13 08:12:51;;;;;;;18.08;9.27;;;9.40;99.90;;;;;;5071063;28;20172;-66
2021/12/13 08:15:23;;;;;;;18.95;9.30;;;9.30;99.90;;;;;;5053320;28;20083;-66
2021/12/13 08:17:54;;;;;;;15.93;9.27;;;9.40;99.90;;;;;;5053522;28;20052;-66
2021/12/13 08:20:28;;;;;;;19.50;10.10;;;9.30;99.90;;;;;;5053051;28;20043;-66
2021/12/13 08:22:55;;;;;;;20.77;10.43;;;9.40;99.90;;;;;;5070459;28;20060;-67
2021/12/13 08:25:32;;;;;;;18.35;10.30;;;9.40;99.90;;;;;;5051126;28;20041;-66
2021/12/13 08:28:03;;;;;;;19.35;10.30;;;9.40;99.90;;;;;;5070587;28;20040;-66
2021/12/13 08:30:33;;;;;;;25.58;10.70;;;9.40;99.90;;;;;;5072059;28;20048;-66
2021/12/13 08:33:16;;;;;;;18.00;10.27;;;9.40;99.90;;;;;;5052374;28;20036;-66
2021/12/13 08:36:09;;;;;;;21.05;10.60;;;9.50;99.90;;;;;;5067243;22;20024;-68
2021/12/13 08:39:02;;;;;;;18.55;10.45;;;9.50;99.90;;;;;;5062446;28;20040;-68
2021/12/13 08:41:42;;;;;;;22.83;10.32;;;9.50;99.90;;;;;;5055366;28;20468;-68
2021/12/13 08:44:10;;;;;;;19.55;10.40;;;9.50;99.90;;;;;;5058069;28;20489;-68
2021/12/13 08:47:02;;;;;;;19.63;10.35;;;9.40;99.90;;;;;;5044217;28;20113;-66
2021/12/13 08:49:43;;;;;;;17.20;10.40;;;9.50;99.90;;;;;;4988369;28;20053;-68
2021/12/13 08:52:23;;;;;;;16.58;10.23;;;9.50;99.90;;;;;;5039056;28;20501;-66
2021/12/13 08:54:55;;;;;;;18.23;10.75;;;9.50;99.90;;;;;;5025889;28;20120;-67
2021/12/13 08:57:45;;;;;;;18.77;10.02;;;9.60;99.90;;;;;;5047747;28;20033;-67
2021/12/13 09:00:14;;;;;;;19.38;9.73;;;9.60;99.90;;;;;;5040007;28;20040;-67
2021/12/13 09:03:14;;;;;;;20.77;10.90;;;9.60;99.90;;;;;;5037647;28;20037;-67
2021/12/13 09:05:56;;;;;;;19.90;10.05;;;9.60;99.90;;;;;;5047331;28;20106;-66
2021/12/13 09:08:34;;;;;;;19.13;9.95;;;9.70;99.90;;;;;;5039379;28;20041;-66
2021/12/13 09:11:13;;;;;;;19.95;10.15;;;9.60;99.90;;;;;;5027163;28;20094;-66
2021/12/13 09:13:46;;;;;;;20.50;11.73;;;9.60;99.90;;;;;;5024145;28;20132;-68
2021/12/13 09:16:17;;;;;;;21.00;10.75;;;9.60;99.90;;;;;;5021583;28;20140;-68
2021/12/13 09:18:42;;;;;;;18.73;10.32;;;9.60;99.90;;;;;;5038128;28;20069;-68
2021/12/13 09:21:09;;;;;;;17.97;10.57;;;9.60;99.90;;;;;;5046799;28;20063;-68
2021/12/13 09:23:45;;;;;;;18.00;10.23;;;9.70;99.90;;;;;;5040349;28;20380;-68
2021/12/13 09:26:18;;;;;;;18.52;10.00;;;9.70;99.90;;;;;;5039013;28;20047;-68
2021/12/13 09:28:55;;;;;;;16.30;9.52;;;9.70;99.90;;;;;;5048552;28;20318;-67
2021/12/13 09:31:29;;;;;;;20.33;10.18;;;9.70;99.90;;;;;;5046333;28;20071;-66
2021/12/13 09:34:05;;;;;;;22.33;9.48;;;9.70;99.90;;;;;;5019694;28;20388;-67
2021/12/13 09:36:34;;;;;;;16.60;10.50;;;9.70;99.90;;;;;;5045038;28;20416;-67
2021/12/13 09:39:03;;;;;;;17.13;9.00;;;9.70;99.90;;;;;;5040037;28;20302;-66
2021/12/13 09:41:37;;;;;;;17.95;9.98;;;9.70;99.90;;;;;;5032771;28;20048;-65
2021/12/13 09:44:20;;;;;;;16.92;9.23;;;9.70;99.90;;;;;;5018772;28;20147;-68
2021/12/13 09:46:45;;;;;;;15.13;8.90;;;9.70;99.90;;;;;;5039230;28;20037;-66
2021/12/13 09:49:14;;;;;;;22.53;9.47;;;9.70;99.90;;;;;;5025877;28;20106;-67
2021/12/13 09:52:04;;;;;;;15.52;9.52;;;9.70;99.90;;;;;;5021067;28;20460;-67
2021/12/13 09:54:38;;;;;;;14.88;9.02;;;9.70;99.90;;;;;;5042927;28;20110;-66
2021/12/13 09:57:10;;;;;;;18.13;8.70;;;9.70;99.90;;;;;;5029832;28;20056;-65
2021/12/13 09:59:41;;;;;;;16.15;9.77;;;9.70;99.90;;;;;;5040933;28;20033;-66
2021/12/13 10:02:15;;;;;;;18.02;9.45;;;9.70;99.90;;;;;;5024907;28;20036;-66
2021/12/13 10:04:42;;;;;;;16.70;9.40;;;9.70;99.90;;;;;;5026302;28;20037;-69
2021/12/13 10:07:10;;;;;;;13.07;9.23;;;9.70;99.90;;;;;;5032840;28;20132;-68
2021/12/13 10:09:41;;;;;;;18.90;8.90;;;9.70;99.90;;;;;;5022455;28;20043;-68
2021/12/13 10:12:22;;;;;;;16.33;9.60;;;9.80;99.90;;;;;;5024169;28;20057;-75
2021/12/13 10:14:58;;;;;;;17.40;8.27;;;9.80;99.90;;;;;;5039136;28;20059;-72
2021/12/13 10:17:29;;;;;;;16.02;8.07;;;9.90;99.90;;;;;;5043270;28;20460;-65
2021/12/13 10:20:00;;;;;;;15.43;9.07;;;9.90;99.90;;;;;;5043977;28;20351;-65
2021/12/13 10:22:30;;;;;;;14.25;8.30;;;9.90;99.90;;;;;;5044858;28;20401;-65
2021/12/13 10:25:12;;;;;;;17.73;9.07;;;9.90;99.90;;;;;;5045181;28;20275;-65
2021/12/13 10:27:38;;;;;;;12.63;8.35;;;9.90;99.90;;;;;;5042687;28;20040;-65
2021/12/13 10:30:10;;;;;;;17.42;8.32;;;9.90;99.90;;;;;;5044378;28;20033;-65
2021/12/13 10:32:38;;;;;;;18.45;9.32;;;9.90;99.90;;;;;;5046271;28;20420;-65
2021/12/13 10:35:11;;;;;;;16.67;9.02;;;9.90;99.90;;;;;;5024927;28;20084;-65
2021/12/13 10:37:44;;;;;;;14.32;8.25;;;9.90;99.90;;;;;;5044356;28;20090;-66
2021/12/13 10:40:24;;;;;;;13.38;8.00;;;9.90;99.90;;;;;;5046028;28;20505;-65
2021/12/13 10:43:00;;;;;;;15.85;8.85;;;9.90;99.90;;;;;;5028200;28;20044;-66
2021/12/13 10:45:34;;;;;;;13.20;7.65;;;9.90;99.90;;;;;;5038417;28;20041;-67
2021/12/13 10:48:05;;;;;;;17.15;8.50;;;9.90;99.90;;;;;;5042051;28;20657;-68
2021/12/13 10:51:01;;;;;;;11.90;7.75;;;9.80;99.90;;;;;;5046965;28;20099;-68
2021/12/13 10:53:26;;;;;;;12.57;7.72;;;9.90;99.90;;;;;;5034105;28;20102;-69
2021/12/13 10:56:01;;;;;;;16.43;8.33;;;9.90;99.90;;;;;;5031802;28;21185;-68
2021/12/13 10:58:31;;;;;;;17.38;8.95;;;9.90;99.90;;;;;;5015991;28;20044;-69
2021/12/13 11:01:13;;;;;;;16.90;8.02;;;9.90;99.90;;;;;;5035763;28;20505;-68
2021/12/13 11:03:39;;;;;;;15.50;8.82;;;9.90;99.90;;;;;;5039181;28;20051;-69
2021/12/13 11:06:07;;;;;;;17.00;8.40;;;10.00;99.90;;;;;;5046898;28;20284;-68
2021/12/13 11:08:41;;;;;;;13.90;8.25;;;10.00;99.90;;;;;;5038923;28;20065;-68
2021/12/13 11:11:21;;;;;;;18.25;8.00;;;10.00;99.90;;;;;;5041633;28;20047;-68
2021/12/13 11:13:51;;;;;;;14.55;8.50;;;10.00;99.90;;;;;;5035223;28;20280;-68
2021/12/13 11:16:24;;;;;;;18.25;8.27;;;10.10;99.90;;;;;;5015086;28;20045;-71
2021/12/13 11:18:49;;;;;;;21.52;8.90;;;10.10;99.90;;;;;;5024643;28;20044;-68
2021/12/13 11:21:25;;;;;;;19.50;9.57;;;10.10;99.90;;;;;;5038210;28;20075;-69
2021/12/13 11:23:53;;;;;;;14.18;8.13;;;10.20;99.90;;;;;;5024050;28;20045;-69
2021/12/13 11:26:22;;;;;;;16.10;8.63;;;10.10;99.90;;;;;;5020881;28;20063;-70
2021/12/13 11:28:48;;;;;;;14.90;8.48;;;10.20;99.90;;;;;;5037396;28;20041;-69
2021/12/13 11:31:29;;;;;;;21.95;9.45;;;10.20;99.90;;;;;;5038841;28;20029;-69
2021/12/13 11:34:20;;;;;;;21.15;9.15;;;10.20;99.90;;;;;;5042782;28;20153;-67
2021/12/13 11:37:23;;;;;;;15.85;8.48;;;10.20;99.90;;;;;;5041291;28;20180;-66
2021/12/13 11:40:31;;;;;;;14.55;8.13;;;10.20;99.90;;;;;;5019701;28;20041;-66
2021/12/13 11:43:21;;;;;;;20.40;8.23;;;10.20;99.90;;;;;;5027097;28;20049;-68
2021/12/13 11:46:09;;;;;;;16.13;8.88;;;10.20;99.90;;;;;;5030991;28;20033;-65
2021/12/13 11:49:05;;;;;;;15.45;8.77;;;10.20;99.90;;;;;;5035560;28;20040;-65
2021/12/13 11:52:07;;;;;;;20.27;9.13;;;10.20;99.90;;;;;;5043688;28;20490;-74
2021/12/13 11:55:00;;;;;;;16.25;8.43;;;10.20;99.90;;;;;;5027058;28;20060;-71
2021/12/13 11:57:56;;;;;;;16.50;9.00;;;10.20;99.90;;;;;;5026492;28;20056;-72
2021/12/13 12:00:45;;;;;;;17.02;9.10;;;10.20;99.90;;;;;;5034645;28;20382;-73
2021/12/13 12:03:49;;;;;;;15.60;8.95;;;10.20;99.90;;;;;;5022981;28;20187;-68
2021/12/13 12:06:38;;;;;;;17.02;8.93;;;10.10;99.90;;;;;;5038814;28;20033;-68
2021/12/13 12:09:22;;;;;;;19.27;8.60;;;10.20;99.90;;;;;;5046671;28;20178;-68
2021/12/13 12:12:02;;;;;;;16.13;7.72;;;10.10;99.90;;;;;;5044612;28;20044;-68
2021/12/13 12:14:29;;;;;;;17.38;8.73;;;10.10;99.90;;;;;;5043472;28;20071;-67
2021/12/13 12:16:59;;;;;;;17.83;8.75;;;10.10;99.90;;;;;;5049323;28;20532;-66
2021/12/13 12:19:26;;;;;;;16.10;8.35;;;10.10;99.90;;;;;;5038997;28;20083;-67
2021/12/13 12:22:10;;;;;;;18.02;9.57;;;10.10;99.90;;;;;;5022461;28;20041;-67
2021/12/13 12:24:45;;;;;;;16.90;9.35;;;10.10;99.90;;;;;;5048167;28;20052;-67
2021/12/13 12:27:13;;;;;;;16.83;8.98;;;10.10;99.90;;;;;;5032574;28;20041;-67
2021/12/13 12:29:44;;;;;;;20.08;9.55;;;10.10;99.90;;;;;;5041159;28;20036;-67
2021/12/13 12:32:20;;;;;;;16.17;8.15;;;10.10;99.90;;;;;;5045639;28;20194;-66
2021/12/13 12:34:54;;;;;;;15.90;8.97;;;10.10;99.90;;;;;;5029289;28;20124;-66
2021/12/13 12:37:55;;;;;;;15.82;8.52;;;10.20;99.90;;;;;;5043810;28;20735;-66
2021/12/13 12:40:38;;;;;;;19.10;7.97;;;10.20;99.90;;;;;;5026167;28;20036;-67
2021/12/13 12:43:10;;;;;;;18.73;8.18;;;10.30;99.90;;;;;;5021814;28;20045;-66
2021/12/13 12:45:44;;;;;;;18.60;9.38;;;10.20;99.90;;;;;;5044911;28;20369;-66
2021/12/13 12:48:21;;;;;;;16.38;8.35;;;10.30;99.90;;;;;;5036469;28;20033;-65
2021/12/13 12:51:06;;;;;;;16.35;8.65;;;10.30;99.90;;;;;;5046599;28;20120;-66
2021/12/13 12:53:57;;;;;;;13.90;7.97;;;10.30;99.90;;;;;;5020245;28;20040;-66
2021/12/13 12:56:45;;;;;;;16.45;8.48;;;10.40;99.90;;;;;;5044311;28;20043;-66
2021/12/13 12:59:13;;;;;;;20.15;9.05;;;10.40;99.90;;;;;;5037666;28;20055;-66
2021/12/13 13:01:46;;;;;;;17.27;8.60;;;10.40;99.90;;;;;;5039348;28;20040;-66
2021/12/13 13:04:14;;;;;;;20.17;9.10;;;10.40;99.90;;;;;;5024727;28;20036;-66
2021/12/13 13:07:06;;;;;;;15.65;7.93;;;10.40;99.90;;;;;;5038749;28;20510;-66
2021/12/13 13:09:42;;;;;;;16.17;9.02;;;10.40;99.90;;;;;;5044923;28;20450;-67
2021/12/13 13:12:12;;;;;;;17.37;8.23;;;10.40;99.90;;;;;;5025751;28;20129;-67
2021/12/13 13:14:49;;;;;;;15.35;7.88;;;10.40;99.90;;;;;;5043130;28;20037;-65
2021/12/13 13:17:16;;;;;;;17.85;8.27;;;10.40;99.90;;;;;;5033329;28;20041;-66
2021/12/13 13:19:45;;;;;;;14.35;8.05;;;10.50;99.90;;;;;;5041308;28;20073;-66
2021/12/13 13:22:22;;;;;;;20.02;8.50;;;10.50;99.90;;;;;;5023586;28;20048;-66
2021/12/13 13:25:05;;;;;;;17.88;7.60;;;10.50;99.90;;;;;;5044305;28;20075;-66
2021/12/13 13:27:33;;;;;;;15.90;8.20;;;10.50;99.90;;;;;;5046871;28;20548;-66
2021/12/13 13:29:59;;;;;;;16.38;8.77;;;10.50;99.90;;;;;;5044036;28;20101;-72
2021/12/13 13:32:25;;;;;;;16.85;8.15;;;10.50;99.90;;;;;;5047095;28;20119;-72